Terminal Aerodrome Forecast
Issued by NWS

Home | Current Version | Previous Version | Graphics & Text | Print | Product List | Glossary On
Versions: 1 2 3 4 5 6 7 8 9 10 11 12 13 14 15 16 17 18 19 20 21 22 23 24 25 26
355
FTUS43 KLOT 211441 AAA
TAFORD
TAF AMD
KORD 211441Z 2115/2218 27005KT 5SM BR SCT007 SCT015 OVC025
      TEMPO 2115/2118 4SM BR BKN015
     FM212000 25005KT P6SM SCT025 SCT200
     FM212300 10006KT P6SM SKC
     FM220200 14005KT 3SM BR SKC
     FM220600 22007KT 5SM BR SKC
     FM221400 23009KT P6SM FEW250=

USA.gov is the U.S. government's official web portal to all federal, state and local government web resources and services.